LKPR - Praha Ruzyně, Česká republika
Vzdálenost od této stanice: ZSZ 177km
Aktualizováno: 19.06.2018 08:00
 
Teplota vzduchu: 18°C
Vítr: ZJZ 17 km/h
Rosný bod: 12°C
Vlhkost vzduchu: 68%
Tlak vzduchu: 1023 hPa
Stav počasí: Jasno
Oblačnost: jasná obloha
Viditelnost: více než 10 km
2018/06/19 06:00 LKPR 190600Z 24009KT CAVOK 18/12 Q1023 NOSIG
LKTB - Brno Tuřany, Česká republika
Vzdálenost od této stanice: VJV 28km
Aktualizováno: 19.06.2018 08:00
 
Teplota vzduchu: 21°C
Vítr: S 11 km/h
Rosný bod: 11°C
Vlhkost vzduchu: 53%
Tlak vzduchu: 1022 hPa
Stav počasí: Jasno
Oblačnost: jasná obloha
Viditelnost: více než 10 km
2018/06/19 06:00 LKTB 190600Z 01006KT 330V030 CAVOK 21/11 Q1022 NOSIG
 
LKKV - Karlovy Vary, Česká republika
Vzdálenost od této stanice: SZ 268km
Aktualizováno: 19.06.2018 08:00
 
Teplota vzduchu: 15°C
Vítr: ZJZ 6 km/h
Rosný bod: 11°C
Vlhkost vzduchu: 77%
Tlak vzduchu: 1024 hPa
Stav počasí: Jasno
Oblačnost: jasná obloha
Viditelnost: více než 10 km
2018/06/19 06:00 LKKV 190600Z 25003KT 230V040 CAVOK 15/11 Q1024
LKMT - Ostrava Mošnov, Česká republika
Vzdálenost od této stanice: VSV 136km
Aktualizováno: 19.06.2018 08:00
 
Teplota vzduchu: 20°C
Vítr: VSV 6 km/h
Rosný bod: 12°C
Vlhkost vzduchu: 60%
Tlak vzduchu: 1022 hPa
Stav počasí: Jasno
Oblačnost: jasná obloha
Viditelnost: více než 10 km
2018/06/19 06:00 LKMT 190600Z 07003KT 020V120 CAVOK 20/12 Q1022 NOSIG
 
LKPD - Pardubice, Česká republika
Vzdálenost od této stanice: SSZ 97km
Aktualizováno: 19.06.2018 08:00
 
Teplota vzduchu: 19°C
Vítr: proměnlivý 2 km/h
Rosný bod: 11°C
Vlhkost vzduchu: 60%
Tlak vzduchu: 1022 hPa
Stav počasí: Jasno
Oblačnost: jasná obloha
Viditelnost: více než 10 km
2018/06/19 06:00 LKPD 190600Z VRB01KT CAVOK 19/11 Q1022 NOSIG RMK BLU BLU
LKKB - Praha Kbely, Česká republika
Vzdálenost od této stanice: SZ 162km
Aktualizováno: 19.06.2018 08:00
 
Teplota vzduchu: 18°C
Vítr: JZ 9 km/h
Rosný bod: 12°C
Vlhkost vzduchu: 68%
Tlak vzduchu: 1022 hPa
Stav počasí: Jasno
Oblačnost: jasná obloha
Viditelnost: více než 10 km
2018/06/19 06:00 LKKB 190600Z 22005KT 200V260 CAVOK 18/12 Q1022 NOSIG
 
LKCV - Čáslav, Česká republika
Vzdálenost od této stanice: SZ 103km
Aktualizováno: 19.06.2018 08:00
 
Teplota vzduchu: 19°C
Vítr: VJV 6 km/h
Rosný bod: 12°C
Vlhkost vzduchu: 64%
Tlak vzduchu: 1022 hPa
Stav počasí: Jasno
Oblačnost: jasná obloha
Viditelnost: více než 10 km
2018/06/19 06:00 LKCV 190600Z 11003KT 080V150 CAVOK 19/12 Q1022 NOSIG RMK BLU BLU
LKNA - Náměšť n. Osl., Česká republika
Vzdálenost od této stanice: ZJZ 19km
Aktualizováno: 19.06.2018 08:00
 
Teplota vzduchu: 18°C
Vítr: SZ 11 km/h
Rosný bod: 12°C
Vlhkost vzduchu: 68%
Tlak vzduchu: 1023 hPa
Stav počasí: Jasno
Oblačnost: jasná obloha
Viditelnost: více než 10 km
2018/06/19 06:00 LKNA 190600Z 32006KT CAVOK 18/12 Q1023 NOSIG RMK BLU BLU
 
LKLN - Plzeň Líně, Česká republika
Vzdálenost od této stanice: Z 228km
Aktualizováno: 19.06.2018 08:00
 
Teplota vzduchu: 17°C
Vítr: JJZ 6 km/h
Rosný bod: 12°C
Vlhkost vzduchu: 73%
Tlak vzduchu: 1024 hPa
Stav počasí: Jasno
Oblačnost: jasná obloha
Viditelnost: více než 10 km
2018/06/19 06:00 LKLN 190600Z AUTO 20003KT 160V250 CAVOK 17/12 Q1024
LKVO - Vodochody, Česká republika
Vzdálenost od této stanice: SZ 177km
Aktualizováno: 19.06.2018 08:00
 
Teplota vzduchu: 19°C
Vítr: ZJZ 9 km/h
Rosný bod: 12°C
Vlhkost vzduchu: 64%
Tlak vzduchu: 1023 hPa
Stav počasí: Jasno
Oblačnost: jasná obloha
Viditelnost: více než 10 km
2018/06/19 06:00 LKVO 190600Z 25005KT 200V280 CAVOK 19/12 Q1023